sensor_id;sensor_type;location;lat;lon;timestamp;P1;durP1;ratioP1;P2;durP2;ratioP2
63434;SDS011;68814;50.872;5.306;2023-09-19T00:00:22;13.45;;;2.13;;
63434;SDS011;68814;50.872;5.306;2023-09-19T00:02:54;11.45;;;2.05;;
63434;SDS011;68814;50.872;5.306;2023-09-19T00:05:24;11.02;;;2.08;;
63434;SDS011;68814;50.872;5.306;2023-09-19T00:07:53;13.20;;;1.58;;
63434;SDS011;68814;50.872;5.306;2023-09-19T00:10:20;12.00;;;1.52;;
63434;SDS011;68814;50.872;5.306;2023-09-19T00:12:56;10.13;;;1.90;;
63434;SDS011;68814;50.872;5.306;2023-09-19T00:15:23;9.57;;;2.15;;
63434;SDS011;68814;50.872;5.306;2023-09-19T00:17:51;10.48;;;2.50;;
63434;SDS011;68814;50.872;5.306;2023-09-19T00:20:19;12.23;;;2.42;;
63434;SDS011;68814;50.872;5.306;2023-09-19T00:22:48;8.13;;;1.25;;
63434;SDS011;68814;50.872;5.306;2023-09-19T00:25:17;8.90;;;1.40;;
63434;SDS011;68814;50.872;5.306;2023-09-19T00:27:42;11.82;;;1.95;;
63434;SDS011;68814;50.872;5.306;2023-09-19T00:30:10;16.65;;;2.08;;
63434;SDS011;68814;50.872;5.306;2023-09-19T00:32:41;15.07;;;2.35;;
63434;SDS011;68814;50.872;5.306;2023-09-19T00:35:07;9.82;;;1.80;;
63434;SDS011;68814;50.872;5.306;2023-09-19T00:37:37;11.60;;;1.67;;
63434;SDS011;68814;50.872;5.306;2023-09-19T00:40:05;13.90;;;1.98;;
63434;SDS011;68814;50.872;5.306;2023-09-19T00:42:32;13.52;;;2.17;;
63434;SDS011;68814;50.872;5.306;2023-09-19T00:44:58;10.95;;;1.60;;
63434;SDS011;68814;50.872;5.306;2023-09-19T00:47:28;12.85;;;1.60;;
63434;SDS011;68814;50.872;5.306;2023-09-19T00:49:54;11.98;;;2.25;;
63434;SDS011;68814;50.872;5.306;2023-09-19T00:52:21;10.43;;;1.95;;
63434;SDS011;68814;50.872;5.306;2023-09-19T00:54:48;11.43;;;1.80;;
63434;SDS011;68814;50.872;5.306;2023-09-19T00:57:15;11.55;;;1.90;;
63434;SDS011;68814;50.872;5.306;2023-09-19T00:59:44;12.77;;;1.63;;
63434;SDS011;68814;50.872;5.306;2023-09-19T01:02:13;10.52;;;1.70;;
63434;SDS011;68814;50.872;5.306;2023-09-19T01:04:39;14.25;;;1.88;;
63434;SDS011;68814;50.872;5.306;2023-09-19T01:07:06;14.45;;;1.80;;
63434;SDS011;68814;50.872;5.306;2023-09-19T01:09:33;12.75;;;2.28;;
63434;SDS011;68814;50.872;5.306;2023-09-19T01:12:00;11.98;;;2.05;;
63434;SDS011;68814;50.872;5.306;2023-09-19T01:14:31;18.00;;;2.75;;
63434;SDS011;68814;50.872;5.306;2023-09-19T01:23:28;15.43;;;2.38;;
63434;SDS011;68814;50.872;5.306;2023-09-19T01:30:52;10.77;;;1.75;;
63434;SDS011;68814;50.872;5.306;2023-09-19T01:33:26;13.75;;;2.22;;
63434;SDS011;68814;50.872;5.306;2023-09-19T01:35:52;11.63;;;2.42;;
63434;SDS011;68814;50.872;5.306;2023-09-19T01:38:22;7.65;;;2.25;;
63434;SDS011;68814;50.872;5.306;2023-09-19T01:40:51;17.10;;;1.83;;
63434;SDS011;68814;50.872;5.306;2023-09-19T01:43:33;13.40;;;2.13;;
63434;SDS011;68814;50.872;5.306;2023-09-19T01:46:12;8.90;;;1.55;;
63434;SDS011;68814;50.872;5.306;2023-09-19T01:52:10;10.63;;;1.63;;
63434;SDS011;68814;50.872;5.306;2023-09-19T01:57:35;12.23;;;2.42;;
63434;SDS011;68814;50.872;5.306;2023-09-19T02:00:15;9.35;;;2.13;;
63434;SDS011;68814;50.872;5.306;2023-09-19T02:02:46;12.82;;;2.10;;
63434;SDS011;68814;50.872;5.306;2023-09-19T02:05:12;13.15;;;2.63;;
63434;SDS011;68814;50.872;5.306;2023-09-19T02:07:38;25.92;;;3.10;;
63434;SDS011;68814;50.872;5.306;2023-09-19T02:10:05;13.00;;;2.42;;
63434;SDS011;68814;50.872;5.306;2023-09-19T02:12:32;13.68;;;2.33;;
63434;SDS011;68814;50.872;5.306;2023-09-19T02:14:58;13.57;;;2.42;;
63434;SDS011;68814;50.872;5.306;2023-09-19T02:17:24;19.83;;;2.42;;
63434;SDS011;68814;50.872;5.306;2023-09-19T02:19:53;12.75;;;1.85;;
63434;SDS011;68814;50.872;5.306;2023-09-19T02:22:24;22.10;;;2.85;;
63434;SDS011;68814;50.872;5.306;2023-09-19T02:24:50;16.92;;;2.33;;
63434;SDS011;68814;50.872;5.306;2023-09-19T02:27:16;17.25;;;2.67;;
63434;SDS011;68814;50.872;5.306;2023-09-19T02:29:42;12.85;;;2.50;;
63434;SDS011;68814;50.872;5.306;2023-09-19T02:32:08;16.27;;;2.05;;
63434;SDS011;68814;50.872;5.306;2023-09-19T02:34:36;14.30;;;2.17;;
63434;SDS011;68814;50.872;5.306;2023-09-19T02:37:04;11.60;;;2.08;;
63434;SDS011;68814;50.872;5.306;2023-09-19T02:39:33;14.85;;;1.75;;
63434;SDS011;68814;50.872;5.306;2023-09-19T02:42:00;10.93;;;2.70;;
63434;SDS011;68814;50.872;5.306;2023-09-19T02:44:25;16.63;;;2.38;;
63434;SDS011;68814;50.872;5.306;2023-09-19T02:46:52;14.65;;;2.35;;
63434;SDS011;68814;50.872;5.306;2023-09-19T02:49:18;15.30;;;2.30;;
63434;SDS011;68814;50.872;5.306;2023-09-19T02:51:43;20.10;;;2.38;;
63434;SDS011;68814;50.872;5.306;2023-09-19T02:54:09;14.25;;;2.42;;
63434;SDS011;68814;50.872;5.306;2023-09-19T02:56:36;12.85;;;2.25;;
63434;SDS011;68814;50.872;5.306;2023-09-19T02:59:02;8.50;;;1.80;;
63434;SDS011;68814;50.872;5.306;2023-09-19T03:01:28;9.25;;;1.60;;
63434;SDS011;68814;50.872;5.306;2023-09-19T03:03:54;12.05;;;1.77;;
63434;SDS011;68814;50.872;5.306;2023-09-19T03:06:19;13.27;;;2.05;;
63434;SDS011;68814;50.872;5.306;2023-09-19T03:08:46;14.25;;;1.70;;
63434;SDS011;68814;50.872;5.306;2023-09-19T03:11:13;13.35;;;1.75;;
63434;SDS011;68814;50.872;5.306;2023-09-19T03:13:41;10.30;;;2.03;;
63434;SDS011;68814;50.872;5.306;2023-09-19T03:16:07;15.35;;;2.03;;
63434;SDS011;68814;50.872;5.306;2023-09-19T03:18:34;12.98;;;2.35;;
63434;SDS011;68814;50.872;5.306;2023-09-19T03:20:59;15.52;;;2.40;;
63434;SDS011;68814;50.872;5.306;2023-09-19T03:23:25;16.33;;;2.28;;
63434;SDS011;68814;50.872;5.306;2023-09-19T03:25:52;16.02;;;2.40;;
63434;SDS011;68814;50.872;5.306;2023-09-19T03:28:18;17.50;;;2.25;;
63434;SDS011;68814;50.872;5.306;2023-09-19T03:30:45;20.70;;;2.80;;
63434;SDS011;68814;50.872;5.306;2023-09-19T03:33:11;11.27;;;2.92;;
63434;SDS011;68814;50.872;5.306;2023-09-19T03:35:37;19.23;;;2.53;;
63434;SDS011;68814;50.872;5.306;2023-09-19T03:38:04;19.67;;;2.55;;
63434;SDS011;68814;50.872;5.306;2023-09-19T03:40:30;10.23;;;1.90;;
63434;SDS011;68814;50.872;5.306;2023-09-19T03:42:56;19.55;;;2.72;;
63434;SDS011;68814;50.872;5.306;2023-09-19T03:45:25;18.83;;;2.28;;
63434;SDS011;68814;50.872;5.306;2023-09-19T03:47:50;9.60;;;2.03;;
63434;SDS011;68814;50.872;5.306;2023-09-19T03:50:16;27.05;;;3.50;;
63434;SDS011;68814;50.872;5.306;2023-09-19T03:52:45;19.58;;;2.70;;
63434;SDS011;68814;50.872;5.306;2023-09-19T03:55:11;17.52;;;3.03;;
63434;SDS011;68814;50.872;5.306;2023-09-19T03:57:37;21.20;;;3.28;;
63434;SDS011;68814;50.872;5.306;2023-09-19T04:00:03;14.55;;;2.20;;
63434;SDS011;68814;50.872;5.306;2023-09-19T04:02:37;13.60;;;2.65;;
63434;SDS011;68814;50.872;5.306;2023-09-19T04:05:03;13.82;;;2.53;;
63434;SDS011;68814;50.872;5.306;2023-09-19T04:07:29;10.73;;;2.00;;
63434;SDS011;68814;50.872;5.306;2023-09-19T04:09:55;20.95;;;2.92;;
63434;SDS011;68814;50.872;5.306;2023-09-19T04:12:20;10.77;;;2.65;;
63434;SDS011;68814;50.872;5.306;2023-09-19T04:14:46;12.88;;;2.05;;
63434;SDS011;68814;50.872;5.306;2023-09-19T04:17:12;14.95;;;2.33;;
63434;SDS011;68814;50.872;5.306;2023-09-19T04:19:37;14.38;;;2.00;;
63434;SDS011;68814;50.872;5.306;2023-09-19T04:22:03;8.73;;;2.22;;
63434;SDS011;68814;50.872;5.306;2023-09-19T04:24:29;17.48;;;2.78;;
63434;SDS011;68814;50.872;5.306;2023-09-19T04:26:57;15.43;;;2.53;;
63434;SDS011;68814;50.872;5.306;2023-09-19T04:29:24;15.77;;;2.33;;
63434;SDS011;68814;50.872;5.306;2023-09-19T04:31:51;16.02;;;2.38;;
63434;SDS011;68814;50.872;5.306;2023-09-19T04:34:17;14.65;;;2.67;;
63434;SDS011;68814;50.872;5.306;2023-09-19T04:36:43;17.95;;;2.13;;
63434;SDS011;68814;50.872;5.306;2023-09-19T04:39:09;10.88;;;2.25;;
63434;SDS011;68814;50.872;5.306;2023-09-19T04:41:36;13.38;;;1.70;;
63434;SDS011;68814;50.872;5.306;2023-09-19T04:44:06;12.82;;;2.20;;
63434;SDS011;68814;50.872;5.306;2023-09-19T04:46:32;11.98;;;2.63;;
63434;SDS011;68814;50.872;5.306;2023-09-19T04:48:58;29.15;;;2.05;;
63434;SDS011;68814;50.872;5.306;2023-09-19T04:51:24;15.73;;;2.33;;
63434;SDS011;68814;50.872;5.306;2023-09-19T04:53:51;9.65;;;2.00;;
63434;SDS011;68814;50.872;5.306;2023-09-19T04:56:17;12.38;;;2.05;;
63434;SDS011;68814;50.872;5.306;2023-09-19T04:58:44;18.13;;;2.60;;
63434;SDS011;68814;50.872;5.306;2023-09-19T05:01:09;10.27;;;2.50;;
63434;SDS011;68814;50.872;5.306;2023-09-19T05:03:37;13.23;;;1.98;;
63434;SDS011;68814;50.872;5.306;2023-09-19T05:06:03;17.05;;;2.58;;
63434;SDS011;68814;50.872;5.306;2023-09-19T05:08:30;16.13;;;2.58;;
63434;SDS011;68814;50.872;5.306;2023-09-19T05:10:55;19.10;;;2.50;;
63434;SDS011;68814;50.872;5.306;2023-09-19T05:13:21;15.10;;;2.47;;
63434;SDS011;68814;50.872;5.306;2023-09-19T05:15:49;14.55;;;2.05;;
63434;SDS011;68814;50.872;5.306;2023-09-19T05:18:17;30.25;;;4.05;;
63434;SDS011;68814;50.872;5.306;2023-09-19T05:20:43;11.02;;;1.85;;
63434;SDS011;68814;50.872;5.306;2023-09-19T05:23:09;19.90;;;3.13;;
63434;SDS011;68814;50.872;5.306;2023-09-19T05:25:36;20.65;;;2.20;;
63434;SDS011;68814;50.872;5.306;2023-09-19T05:28:04;13.40;;;1.98;;
63434;SDS011;68814;50.872;5.306;2023-09-19T05:30:33;12.70;;;2.13;;
63434;SDS011;68814;50.872;5.306;2023-09-19T05:33:01;16.95;;;2.90;;
63434;SDS011;68814;50.872;5.306;2023-09-19T05:35:27;14.95;;;3.00;;
63434;SDS011;68814;50.872;5.306;2023-09-19T05:37:53;13.30;;;2.35;;
63434;SDS011;68814;50.872;5.306;2023-09-19T05:40:20;12.60;;;1.95;;
63434;SDS011;68814;50.872;5.306;2023-09-19T05:42:46;25.05;;;3.40;;
63434;SDS011;68814;50.872;5.306;2023-09-19T05:45:12;13.45;;;1.60;;
63434;SDS011;68814;50.872;5.306;2023-09-19T05:47:39;11.55;;;1.98;;
63434;SDS011;68814;50.872;5.306;2023-09-19T05:50:09;10.65;;;2.10;;
63434;SDS011;68814;50.872;5.306;2023-09-19T05:52:38;12.05;;;1.92;;
63434;SDS011;68814;50.872;5.306;2023-09-19T05:55:04;14.45;;;2.15;;
63434;SDS011;68814;50.872;5.306;2023-09-19T05:57:34;13.00;;;2.40;;
63434;SDS011;68814;50.872;5.306;2023-09-19T06:00:05;16.55;;;2.22;;
63434;SDS011;68814;50.872;5.306;2023-09-19T06:02:42;20.33;;;2.78;;
63434;SDS011;68814;50.872;5.306;2023-09-19T06:05:10;13.48;;;1.73;;
63434;SDS011;68814;50.872;5.306;2023-09-19T06:07:36;18.02;;;2.15;;
63434;SDS011;68814;50.872;5.306;2023-09-19T06:10:05;16.75;;;2.35;;
63434;SDS011;68814;50.872;5.306;2023-09-19T06:12:32;11.45;;;2.15;;
63434;SDS011;68814;50.872;5.306;2023-09-19T06:15:03;13.07;;;2.03;;
63434;SDS011;68814;50.872;5.306;2023-09-19T06:17:34;11.68;;;1.98;;
63434;SDS011;68814;50.872;5.306;2023-09-19T06:20:04;14.05;;;2.05;;
63434;SDS011;68814;50.872;5.306;2023-09-19T06:22:37;18.48;;;2.33;;
63434;SDS011;68814;50.872;5.306;2023-09-19T06:25:07;10.43;;;1.63;;
63434;SDS011;68814;50.872;5.306;2023-09-19T06:27:36;11.80;;;1.67;;
63434;SDS011;68814;50.872;5.306;2023-09-19T06:30:02;14.25;;;2.08;;
63434;SDS011;68814;50.872;5.306;2023-09-19T06:32:28;8.20;;;1.95;;
63434;SDS011;68814;50.872;5.306;2023-09-19T06:34:53;11.80;;;1.98;;
63434;SDS011;68814;50.872;5.306;2023-09-19T06:37:20;13.10;;;1.75;;
63434;SDS011;68814;50.872;5.306;2023-09-19T06:39:47;11.07;;;1.92;;
63434;SDS011;68814;50.872;5.306;2023-09-19T06:42:14;14.02;;;1.85;;
63434;SDS011;68814;50.872;5.306;2023-09-19T06:44:42;12.80;;;2.10;;
63434;SDS011;68814;50.872;5.306;2023-09-19T06:47:08;14.90;;;2.80;;
63434;SDS011;68814;50.872;5.306;2023-09-19T06:49:35;14.23;;;2.15;;
63434;SDS011;68814;50.872;5.306;2023-09-19T06:52:01;16.90;;;2.75;;
63434;SDS011;68814;50.872;5.306;2023-09-19T06:54:27;16.42;;;2.75;;
63434;SDS011;68814;50.872;5.306;2023-09-19T06:56:56;17.17;;;2.33;;
63434;SDS011;68814;50.872;5.306;2023-09-19T06:59:23;20.20;;;2.90;;
63434;SDS011;68814;50.872;5.306;2023-09-19T07:01:49;21.85;;;2.97;;
63434;SDS011;68814;50.872;5.306;2023-09-19T07:04:16;11.65;;;1.58;;
63434;SDS011;68814;50.872;5.306;2023-09-19T07:06:44;15.68;;;1.90;;
63434;SDS011;68814;50.872;5.306;2023-09-19T07:09:14;14.88;;;2.17;;
63434;SDS011;68814;50.872;5.306;2023-09-19T07:11:40;14.43;;;2.40;;
63434;SDS011;68814;50.872;5.306;2023-09-19T07:14:06;16.58;;;2.13;;
63434;SDS011;68814;50.872;5.306;2023-09-19T07:16:32;10.18;;;1.60;;
63434;SDS011;68814;50.872;5.306;2023-09-19T07:18:57;14.75;;;1.60;;
63434;SDS011;68814;50.872;5.306;2023-09-19T07:21:23;15.45;;;1.95;;
63434;SDS011;68814;50.872;5.306;2023-09-19T07:23:49;7.35;;;1.65;;
63434;SDS011;68814;50.872;5.306;2023-09-19T07:26:15;12.88;;;1.52;;
63434;SDS011;68814;50.872;5.306;2023-09-19T07:28:41;20.20;;;2.50;;
63434;SDS011;68814;50.872;5.306;2023-09-19T07:31:07;12.95;;;2.42;;
63434;SDS011;68814;50.872;5.306;2023-09-19T07:33:35;14.27;;;2.13;;
63434;SDS011;68814;50.872;5.306;2023-09-19T07:36:01;12.73;;;1.90;;
63434;SDS011;68814;50.872;5.306;2023-09-19T07:38:27;11.00;;;1.40;;
63434;SDS011;68814;50.872;5.306;2023-09-19T07:40:53;15.63;;;2.10;;
63434;SDS011;68814;50.872;5.306;2023-09-19T07:43:18;12.32;;;2.05;;
63434;SDS011;68814;50.872;5.306;2023-09-19T07:45:44;16.67;;;2.25;;
63434;SDS011;68814;50.872;5.306;2023-09-19T07:48:10;13.20;;;1.80;;
63434;SDS011;68814;50.872;5.306;2023-09-19T07:50:40;9.70;;;1.50;;
63434;SDS011;68814;50.872;5.306;2023-09-19T07:53:08;15.48;;;2.28;;
63434;SDS011;68814;50.872;5.306;2023-09-19T07:55:34;9.80;;;1.83;;
63434;SDS011;68814;50.872;5.306;2023-09-19T07:57:59;9.77;;;1.73;;
63434;SDS011;68814;50.872;5.306;2023-09-19T08:00:25;19.90;;;2.83;;
63434;SDS011;68814;50.872;5.306;2023-09-19T08:02:51;10.18;;;1.98;;
63434;SDS011;68814;50.872;5.306;2023-09-19T08:05:17;14.52;;;2.28;;
63434;SDS011;68814;50.872;5.306;2023-09-19T08:07:46;14.68;;;1.67;;
63434;SDS011;68814;50.872;5.306;2023-09-19T08:10:14;12.45;;;1.77;;
63434;SDS011;68814;50.872;5.306;2023-09-19T08:12:41;8.32;;;1.42;;
63434;SDS011;68814;50.872;5.306;2023-09-19T08:15:20;10.93;;;2.33;;
63434;SDS011;68814;50.872;5.306;2023-09-19T08:17:46;14.27;;;1.98;;
63434;SDS011;68814;50.872;5.306;2023-09-19T08:20:12;8.40;;;1.90;;
63434;SDS011;68814;50.872;5.306;2023-09-19T08:22:51;5.93;;;1.40;;
63434;SDS011;68814;50.872;5.306;2023-09-19T08:25:19;13.73;;;2.00;;
63434;SDS011;68814;50.872;5.306;2023-09-19T08:27:46;9.40;;;2.13;;
63434;SDS011;68814;50.872;5.306;2023-09-19T08:30:20;12.80;;;1.42;;
63434;SDS011;68814;50.872;5.306;2023-09-19T08:33:10;14.63;;;1.85;;
63434;SDS011;68814;50.872;5.306;2023-09-19T08:35:35;16.35;;;2.13;;
63434;SDS011;68814;50.872;5.306;2023-09-19T08:38:03;13.75;;;2.78;;
63434;SDS011;68814;50.872;5.306;2023-09-19T08:40:32;12.32;;;2.30;;
63434;SDS011;68814;50.872;5.306;2023-09-19T08:43:00;10.40;;;1.80;;
63434;SDS011;68814;50.872;5.306;2023-09-19T08:45:26;12.02;;;2.00;;
63434;SDS011;68814;50.872;5.306;2023-09-19T08:50:31;14.63;;;1.98;;
63434;SDS011;68814;50.872;5.306;2023-09-19T08:53:06;14.05;;;2.53;;
63434;SDS011;68814;50.872;5.306;2023-09-19T08:55:37;20.20;;;3.47;;
63434;SDS011;68814;50.872;5.306;2023-09-19T08:58:08;9.68;;;1.63;;
63434;SDS011;68814;50.872;5.306;2023-09-19T09:00:36;13.35;;;2.15;;
63434;SDS011;68814;50.872;5.306;2023-09-19T09:03:08;14.07;;;2.00;;
63434;SDS011;68814;50.872;5.306;2023-09-19T09:05:35;14.45;;;2.33;;
63434;SDS011;68814;50.872;5.306;2023-09-19T09:08:01;6.93;;;1.80;;
63434;SDS011;68814;50.872;5.306;2023-09-19T09:10:31;12.20;;;1.67;;
63434;SDS011;68814;50.872;5.306;2023-09-19T09:12:57;7.30;;;1.40;;
63434;SDS011;68814;50.872;5.306;2023-09-19T09:15:23;10.70;;;1.95;;
63434;SDS011;68814;50.872;5.306;2023-09-19T09:17:50;8.00;;;1.40;;
63434;SDS011;68814;50.872;5.306;2023-09-19T09:20:18;13.07;;;2.05;;
63434;SDS011;68814;50.872;5.306;2023-09-19T09:22:51;9.25;;;1.60;;
63434;SDS011;68814;50.872;5.306;2023-09-19T09:25:19;13.68;;;1.80;;
63434;SDS011;68814;50.872;5.306;2023-09-19T09:27:46;9.00;;;1.63;;
63434;SDS011;68814;50.872;5.306;2023-09-19T09:30:33;7.70;;;1.70;;
63434;SDS011;68814;50.872;5.306;2023-09-19T09:33:13;10.23;;;1.50;;
63434;SDS011;68814;50.872;5.306;2023-09-19T09:38:21;11.70;;;2.00;;
63434;SDS011;68814;50.872;5.306;2023-09-19T09:40:52;9.63;;;1.45;;
63434;SDS011;68814;50.872;5.306;2023-09-19T09:43:35;9.38;;;1.50;;
63434;SDS011;68814;50.872;5.306;2023-09-19T09:51:41;13.13;;;2.25;;
63434;SDS011;68814;50.872;5.306;2023-09-19T09:54:15;11.45;;;1.92;;
63434;SDS011;68814;50.872;5.306;2023-09-19T09:56:52;14.77;;;2.15;;
63434;SDS011;68814;50.872;5.306;2023-09-19T10:02:37;11.43;;;2.22;;
63434;SDS011;68814;50.872;5.306;2023-09-19T10:05:12;13.23;;;2.47;;
63434;SDS011;68814;50.872;5.306;2023-09-19T10:08:11;12.70;;;2.25;;
63434;SDS011;68814;50.872;5.306;2023-09-19T10:10:40;8.68;;;1.67;;
63434;SDS011;68814;50.872;5.306;2023-09-19T10:13:06;10.38;;;1.77;;
63434;SDS011;68814;50.872;5.306;2023-09-19T10:15:33;13.93;;;1.95;;
63434;SDS011;68814;50.872;5.306;2023-09-19T10:18:04;7.68;;;1.45;;
63434;SDS011;68814;50.872;5.306;2023-09-19T10:20:33;10.63;;;1.80;;
63434;SDS011;68814;50.872;5.306;2023-09-19T10:23:05;7.68;;;1.67;;
63434;SDS011;68814;50.872;5.306;2023-09-19T10:33:27;10.73;;;1.90;;
63434;SDS011;68814;50.872;5.306;2023-09-19T10:36:04;10.93;;;1.77;;
63434;SDS011;68814;50.872;5.306;2023-09-19T10:38:30;9.35;;;1.27;;
63434;SDS011;68814;50.872;5.306;2023-09-19T10:40:58;7.05;;;1.27;;
63434;SDS011;68814;50.872;5.306;2023-09-19T10:43:25;8.25;;;1.45;;
63434;SDS011;68814;50.872;5.306;2023-09-19T10:45:56;8.90;;;1.20;;
63434;SDS011;68814;50.872;5.306;2023-09-19T10:48:26;6.93;;;1.33;;
63434;SDS011;68814;50.872;5.306;2023-09-19T10:53:29;8.05;;;1.67;;
63434;SDS011;68814;50.872;5.306;2023-09-19T10:56:08;6.50;;;1.40;;
63434;SDS011;68814;50.872;5.306;2023-09-19T10:58:42;10.52;;;1.85;;
63434;SDS011;68814;50.872;5.306;2023-09-19T11:01:10;7.32;;;1.88;;
63434;SDS011;68814;50.872;5.306;2023-09-19T11:03:39;8.93;;;1.50;;
63434;SDS011;68814;50.872;5.306;2023-09-19T11:06:15;8.45;;;1.40;;
63434;SDS011;68814;50.872;5.306;2023-09-19T11:30:33;6.70;;;1.38;;
63434;SDS011;68814;50.872;5.306;2023-09-19T11:33:16;7.50;;;1.05;;
63434;SDS011;68814;50.872;5.306;2023-09-19T11:36:13;5.60;;;1.25;;
63434;SDS011;68814;50.872;5.306;2023-09-19T11:43:51;5.60;;;1.10;;
63434;SDS011;68814;50.872;5.306;2023-09-19T11:49:07;7.68;;;1.40;;
63434;SDS011;68814;50.872;5.306;2023-09-19T11:51:40;4.03;;;0.80;;
63434;SDS011;68814;50.872;5.306;2023-09-19T11:54:11;8.15;;;1.00;;
63434;SDS011;68814;50.872;5.306;2023-09-19T11:56:56;10.32;;;0.88;;
63434;SDS011;68814;50.872;5.306;2023-09-19T11:59:24;4.43;;;0.85;;
63434;SDS011;68814;50.872;5.306;2023-09-19T12:01:54;2.53;;;0.60;;
63434;SDS011;68814;50.872;5.306;2023-09-19T12:04:42;4.60;;;0.82;;
63434;SDS011;68814;50.872;5.306;2023-09-19T12:07:14;5.63;;;0.70;;
63434;SDS011;68814;50.872;5.306;2023-09-19T12:09:41;5.45;;;0.52;;
63434;SDS011;68814;50.872;5.306;2023-09-19T12:12:19;2.55;;;0.50;;
63434;SDS011;68814;50.872;5.306;2023-09-19T12:14:49;5.35;;;0.85;;
63434;SDS011;68814;50.872;5.306;2023-09-19T12:17:16;5.75;;;1.10;;
63434;SDS011;68814;50.872;5.306;2023-09-19T12:19:53;3.22;;;0.68;;
63434;SDS011;68814;50.872;5.306;2023-09-19T12:22:20;2.65;;;0.50;;
63434;SDS011;68814;50.872;5.306;2023-09-19T12:24:46;3.33;;;0.55;;
63434;SDS011;68814;50.872;5.306;2023-09-19T12:27:13;6.80;;;0.68;;
63434;SDS011;68814;50.872;5.306;2023-09-19T12:32:13;3.75;;;0.80;;
63434;SDS011;68814;50.872;5.306;2023-09-19T12:34:42;2.50;;;0.57;;
63434;SDS011;68814;50.872;5.306;2023-09-19T12:37:08;2.85;;;0.40;;
63434;SDS011;68814;50.872;5.306;2023-09-19T12:39:48;8.05;;;0.60;;
63434;SDS011;68814;50.872;5.306;2023-09-19T12:42:17;3.38;;;0.50;;
63434;SDS011;68814;50.872;5.306;2023-09-19T12:44:45;3.15;;;0.60;;
63434;SDS011;68814;50.872;5.306;2023-09-19T12:47:13;5.40;;;0.43;;
63434;SDS011;68814;50.872;5.306;2023-09-19T12:52:47;5.78;;;0.85;;
63434;SDS011;68814;50.872;5.306;2023-09-19T12:55:20;5.28;;;0.50;;
63434;SDS011;68814;50.872;5.306;2023-09-19T12:58:11;4.55;;;0.50;;
63434;SDS011;68814;50.872;5.306;2023-09-19T13:00:38;6.10;;;0.60;;
63434;SDS011;68814;50.872;5.306;2023-09-19T13:03:12;4.07;;;0.52;;
63434;SDS011;68814;50.872;5.306;2023-09-19T13:05:57;4.03;;;0.65;;
63434;SDS011;68814;50.872;5.306;2023-09-19T13:08:26;5.45;;;0.70;;
63434;SDS011;68814;50.872;5.306;2023-09-19T13:11:16;4.28;;;0.55;;
63434;SDS011;68814;50.872;5.306;2023-09-19T13:16:20;4.70;;;0.43;;
63434;SDS011;68814;50.872;5.306;2023-09-19T13:18:50;7.45;;;1.15;;
63434;SDS011;68814;50.872;5.306;2023-09-19T13:24:23;2.05;;;0.50;;
63434;SDS011;68814;50.872;5.306;2023-09-19T13:26:58;5.45;;;0.77;;
63434;SDS011;68814;50.872;5.306;2023-09-19T13:29:25;4.72;;;0.60;;
63434;SDS011;68814;50.872;5.306;2023-09-19T13:31:51;15.65;;;1.90;;
63434;SDS011;68814;50.872;5.306;2023-09-19T13:34:20;2.40;;;0.77;;
63434;SDS011;68814;50.872;5.306;2023-09-19T13:36:46;4.55;;;0.65;;
63434;SDS011;68814;50.872;5.306;2023-09-19T13:39:15;5.35;;;0.50;;
63434;SDS011;68814;50.872;5.306;2023-09-19T13:41:43;6.65;;;0.98;;
63434;SDS011;68814;50.872;5.306;2023-09-19T13:44:13;10.98;;;0.60;;
63434;SDS011;68814;50.872;5.306;2023-09-19T13:46:39;2.67;;;0.50;;
63434;SDS011;68814;50.872;5.306;2023-09-19T13:49:05;3.40;;;0.68;;
63434;SDS011;68814;50.872;5.306;2023-09-19T13:51:31;2.70;;;0.60;;
63434;SDS011;68814;50.872;5.306;2023-09-19T13:53:57;3.10;;;0.50;;
63434;SDS011;68814;50.872;5.306;2023-09-19T13:56:24;2.42;;;0.43;;
63434;SDS011;68814;50.872;5.306;2023-09-19T13:58:56;1.77;;;0.47;;
63434;SDS011;68814;50.872;5.306;2023-09-19T14:01:21;5.13;;;0.90;;
63434;SDS011;68814;50.872;5.306;2023-09-19T14:03:48;3.42;;;0.60;;
63434;SDS011;68814;50.872;5.306;2023-09-19T14:06:33;3.75;;;0.68;;
63434;SDS011;68814;50.872;5.306;2023-09-19T14:08:59;4.40;;;0.75;;
63434;SDS011;68814;50.872;5.306;2023-09-19T14:11:26;5.22;;;0.50;;
63434;SDS011;68814;50.872;5.306;2023-09-19T14:13:51;3.05;;;0.45;;
63434;SDS011;68814;50.872;5.306;2023-09-19T14:16:17;3.28;;;0.50;;
63434;SDS011;68814;50.872;5.306;2023-09-19T14:18:44;5.43;;;0.65;;
63434;SDS011;68814;50.872;5.306;2023-09-19T14:21:10;5.45;;;0.90;;
63434;SDS011;68814;50.872;5.306;2023-09-19T14:23:37;4.50;;;0.60;;
63434;SDS011;68814;50.872;5.306;2023-09-19T14:26:03;4.45;;;0.77;;
63434;SDS011;68814;50.872;5.306;2023-09-19T14:28:30;4.38;;;0.73;;
63434;SDS011;68814;50.872;5.306;2023-09-19T14:30:58;3.30;;;0.55;;
63434;SDS011;68814;50.872;5.306;2023-09-19T14:33:30;3.10;;;0.70;;
63434;SDS011;68814;50.872;5.306;2023-09-19T14:35:56;4.75;;;0.80;;
63434;SDS011;68814;50.872;5.306;2023-09-19T14:38:22;2.70;;;0.50;;
63434;SDS011;68814;50.872;5.306;2023-09-19T14:40:47;4.97;;;0.88;;
63434;SDS011;68814;50.872;5.306;2023-09-19T14:43:15;6.60;;;1.27;;
63434;SDS011;68814;50.872;5.306;2023-09-19T14:45:40;2.63;;;0.57;;
63434;SDS011;68814;50.872;5.306;2023-09-19T14:48:06;5.18;;;0.98;;
63434;SDS011;68814;50.872;5.306;2023-09-19T14:50:32;5.00;;;0.77;;
63434;SDS011;68814;50.872;5.306;2023-09-19T14:52:58;6.10;;;1.23;;
63434;SDS011;68814;50.872;5.306;2023-09-19T14:55:26;5.30;;;1.17;;
63434;SDS011;68814;50.872;5.306;2023-09-19T14:57:54;4.30;;;0.60;;
63434;SDS011;68814;50.872;5.306;2023-09-19T15:00:22;3.60;;;0.50;;
63434;SDS011;68814;50.872;5.306;2023-09-19T15:02:48;6.00;;;0.73;;
63434;SDS011;68814;50.872;5.306;2023-09-19T15:05:15;3.47;;;0.50;;
63434;SDS011;68814;50.872;5.306;2023-09-19T15:07:41;5.07;;;0.60;;
63434;SDS011;68814;50.872;5.306;2023-09-19T15:10:07;5.15;;;1.17;;
63434;SDS011;68814;50.872;5.306;2023-09-19T15:12:35;8.48;;;0.93;;
63434;SDS011;68814;50.872;5.306;2023-09-19T15:15:02;3.38;;;0.47;;
63434;SDS011;68814;50.872;5.306;2023-09-19T15:17:35;5.72;;;0.90;;
63434;SDS011;68814;50.872;5.306;2023-09-19T15:20:01;4.75;;;0.88;;
63434;SDS011;68814;50.872;5.306;2023-09-19T15:22:28;9.38;;;1.00;;
63434;SDS011;68814;50.872;5.306;2023-09-19T15:24:53;6.15;;;0.73;;
63434;SDS011;68814;50.872;5.306;2023-09-19T15:27:23;6.40;;;1.38;;
63434;SDS011;68814;50.872;5.306;2023-09-19T15:29:49;9.27;;;1.23;;
63434;SDS011;68814;50.872;5.306;2023-09-19T15:32:14;3.65;;;1.00;;
63434;SDS011;68814;50.872;5.306;2023-09-19T15:34:40;5.25;;;0.85;;
63434;SDS011;68814;50.872;5.306;2023-09-19T15:37:06;5.18;;;1.25;;
63434;SDS011;68814;50.872;5.306;2023-09-19T15:39:31;5.95;;;0.75;;
63434;SDS011;68814;50.872;5.306;2023-09-19T15:42:04;3.85;;;0.93;;
63434;SDS011;68814;50.872;5.306;2023-09-19T15:44:29;6.53;;;0.90;;
63434;SDS011;68814;50.872;5.306;2023-09-19T15:46:56;4.28;;;1.05;;
63434;SDS011;68814;50.872;5.306;2023-09-19T15:49:22;4.93;;;1.33;;
63434;SDS011;68814;50.872;5.306;2023-09-19T15:51:48;6.03;;;0.98;;
63434;SDS011;68814;50.872;5.306;2023-09-19T15:54:14;7.00;;;0.88;;
63434;SDS011;68814;50.872;5.306;2023-09-19T15:56:43;4.43;;;0.93;;
63434;SDS011;68814;50.872;5.306;2023-09-19T15:59:10;7.25;;;1.35;;
63434;SDS011;68814;50.872;5.306;2023-09-19T16:01:40;7.93;;;1.23;;
63434;SDS011;68814;50.872;5.306;2023-09-19T16:04:10;6.00;;;1.25;;
63434;SDS011;68814;50.872;5.306;2023-09-19T16:06:42;5.18;;;0.90;;
63434;SDS011;68814;50.872;5.306;2023-09-19T16:09:10;5.45;;;0.80;;
63434;SDS011;68814;50.872;5.306;2023-09-19T16:11:36;2.45;;;0.80;;